Time;durP1;ratioP1;P1;durP2;ratioP2;P2;SDS_P1;SDS_P2;PMS_P1;PMS_P2;Temp;Humidity;BMP_temperature;BMP_pressure;BME280_temperature;BME280_humidity;BME280_pressure;Samples;Min_cycle;Max_cycle;Signal;HPM_P1;HPM_P2
2022/03/22 12:13:05;;;;;;;9.70;5.38;;;14.70;99.90;;;;;;5131826;27;20948;-76
2022/03/22 12:15:31;;;;;;;8.10;5.28;;;14.80;99.90;;;;;;5131511;27;20166;-76
2022/03/22 12:17:57;;;;;;;7.07;5.32;;;14.80;99.90;;;;;;5131736;27;20163;-76
2022/03/22 12:20:24;;;;;;;13.48;5.50;;;14.90;99.90;;;;;;5131856;27;20185;-77
2022/03/22 12:23:03;;;;;;;6.70;4.72;;;15.00;99.90;;;;;;5132123;28;20745;-77
2022/03/22 12:25:36;;;;;;;8.57;5.45;;;15.10;99.90;;;;;;5131868;27;20166;-78
2022/03/22 12:28:10;;;;;;;5.13;4.63;;;15.10;99.90;;;;;;5130593;28;20170;-79
2022/03/22 12:30:42;;;;;;;8.18;5.53;;;15.30;99.90;;;;;;5131728;27;20204;-77
2022/03/22 12:33:14;;;;;;;5.80;5.20;;;15.40;99.90;;;;;;5131648;27;20162;-78
2022/03/22 12:35:42;;;;;;;4.97;4.47;;;15.50;99.90;;;;;;5131664;27;20163;-77
2022/03/22 12:38:09;;;;;;;6.25;5.18;;;15.50;99.90;;;;;;5131832;27;20161;-78
2022/03/22 12:40:35;;;;;;;7.65;6.28;;;15.60;99.90;;;;;;5131564;27;20174;-79
2022/03/22 12:43:02;;;;;;;9.05;5.95;;;15.70;99.90;;;;;;5131619;28;20178;-77
2022/03/22 12:45:29;;;;;;;7.55;5.47;;;15.70;99.90;;;;;;5131502;27;20170;-77
2022/03/22 12:47:57;;;;;;;6.88;5.15;;;15.80;99.90;;;;;;5131399;27;20166;-77
2022/03/22 12:50:24;;;;;;;8.27;5.70;;;16.00;99.90;;;;;;5131436;28;20163;-77
2022/03/22 12:52:51;;;;;;;12.25;5.65;;;16.30;99.90;;;;;;5131147;27;20643;-77
2022/03/22 12:55:18;;;;;;;10.75;5.00;;;16.40;99.90;;;;;;5131250;28;20166;-77
2022/03/22 12:57:46;;;;;;;6.53;5.60;;;16.50;99.90;;;;;;5131192;27;20165;-77
2022/03/22 13:00:27;;;;;;;9.90;5.47;;;16.60;99.90;;;;;;5131272;27;20208;-77
2022/03/22 13:02:53;;;;;;;5.72;5.03;;;16.70;99.90;;;;;;5131085;28;20205;-77
2022/03/22 13:05:26;;;;;;;8.40;5.28;;;16.70;99.90;;;;;;5129960;28;20174;-77
2022/03/22 13:07:51;;;;;;;8.25;5.45;;;16.80;99.90;;;;;;5130944;27;20170;-77
2022/03/22 13:13:01;;;;;;;6.93;5.90;;;16.90;99.90;;;;;;5130906;27;20229;-80
2022/03/22 13:15:27;;;;;;;7.18;6.47;;;17.10;99.90;;;;;;5130901;27;20167;-80
2022/03/22 13:17:53;;;;;;;7.03;6.10;;;17.20;99.90;;;;;;5129721;28;20260;-78
2022/03/22 13:20:27;;;;;;;7.20;6.47;;;17.30;99.90;;;;;;5129583;28;20232;-79
2022/03/22 13:23:04;;;;;;;7.15;6.13;;;17.30;99.90;;;;;;5125812;27;20143;-75
2022/03/22 13:25:38;;;;;;;12.77;6.78;;;17.40;99.90;;;;;;5117180;28;20227;-76
2022/03/22 13:28:09;;;;;;;9.65;6.07;;;17.50;99.90;;;;;;5115805;28;20523;-76
2022/03/22 13:30:38;;;;;;;12.00;6.53;;;17.60;99.90;;;;;;5116948;28;20170;-75
2022/03/22 13:33:13;;;;;;;7.25;5.68;;;17.70;99.90;;;;;;5117008;28;20163;-79
2022/03/22 13:36:03;;;;;;;14.15;6.63;;;17.80;99.90;;;;;;5116789;28;20151;-83
2022/03/22 13:42:25;;;;;;;;;;;;;;;;;;;;;
2022/03/22 13:44:59;;;;;;;12.75;6.97;;;18.00;99.90;;;;;;5116766;28;20143;-84
2022/03/22 13:50:48;;;;;;;8.60;6.03;;;18.20;99.20;;;;;;5114290;28;20579;-84
2022/03/22 13:53:23;;;;;;;7.45;5.97;;;18.40;99.90;;;;;;5116185;28;20207;-85
2022/03/22 13:56:11;;;;;;;10.98;6.15;;;18.50;99.90;;;;;;5115467;28;20257;-85
2022/03/22 13:58:44;;;;;;;6.78;6.18;;;18.50;98.30;;;;;;5115224;28;20510;-87
2022/03/22 14:01:11;;;;;;;8.52;7.00;;;18.50;97.10;;;;;;5116482;28;20521;-84
2022/03/22 14:03:37;;;;;;;12.85;6.20;;;18.80;96.20;;;;;;5116588;28;20571;-85
2022/03/22 14:06:13;;;;;;;6.20;5.60;;;18.70;96.80;;;;;;5116337;28;20244;-84
2022/03/22 14:11:57;;;;;;;6.43;5.82;;;17.90;93.30;;;;;;5111790;28;20212;-85
2022/03/22 14:14:30;;;;;;;7.00;6.10;;;18.90;90.90;;;;;;5115099;28;20167;-86
2022/03/22 14:16:56;;;;;;;11.52;6.82;;;19.00;90.60;;;;;;5116385;28;20169;-83
2022/03/22 14:19:22;;;;;;;8.18;7.03;;;19.10;91.60;;;;;;5114918;28;20170;-89
2022/03/22 14:28:55;;;;;;;6.88;6.32;;;19.30;85.20;;;;;;5092157;28;20408;-83
2022/03/22 14:31:26;;;;;;;6.22;5.15;;;19.40;87.20;;;;;;5076069;28;20213;-83
2022/03/22 14:33:59;;;;;;;7.97;5.53;;;19.50;90.30;;;;;;5093627;28;20161;-92
2022/03/22 14:43:02;;;;;;;6.80;6.28;;;19.70;89.70;;;;;;4990027;28;20640;-81
2022/03/22 14:45:28;;;;;;;8.73;5.00;;;19.80;83.00;;;;;;5098867;28;20249;-81
2022/03/22 14:48:04;;;;;;;6.05;5.45;;;19.70;79.20;;;;;;5115332;28;20158;-78
2022/03/22 14:50:31;;;;;;;5.95;5.15;;;19.70;74.70;;;;;;5115449;28;20166;-77
2022/03/22 14:55:42;;;;;;;9.63;5.90;;;19.80;77.80;;;;;;5115248;28;20848;-79
2022/03/22 15:00:56;;;;;;;6.10;5.50;;;19.90;72.30;;;;;;5115279;28;20633;-80
2022/03/22 15:03:31;;;;;;;6.07;5.38;;;20.00;68.10;;;;;;5114992;28;20257;-80
2022/03/22 15:06:03;;;;;;;5.65;4.85;;;20.00;69.90;;;;;;5114890;28;20163;-79
2022/03/22 15:08:31;;;;;;;6.43;5.45;;;20.00;68.40;;;;;;5114897;28;20192;-79
2022/03/22 15:10:57;;;;;;;5.80;5.30;;;20.30;68.00;;;;;;5114659;28;20190;-77
2022/03/22 15:13:27;;;;;;;9.68;5.95;;;20.10;65.80;;;;;;5114878;28;20523;-79
2022/03/22 15:15:54;;;;;;;6.75;5.85;;;20.00;63.60;;;;;;5113875;28;20177;-80
2022/03/22 15:18:20;;;;;;;10.25;6.30;;;20.00;67.60;;;;;;5114937;28;20163;-80
2022/03/22 15:20:46;;;;;;;5.75;5.25;;;20.10;67.00;;;;;;5114864;28;20246;-84
2022/03/22 15:23:13;;;;;;;6.97;6.20;;;20.20;67.70;;;;;;5113948;28;20713;-82
2022/03/22 15:25:43;;;;;;;6.45;5.93;;;20.10;67.20;;;;;;5114793;28;20241;-81
2022/03/22 15:28:10;;;;;;;8.98;6.18;;;20.20;63.90;;;;;;5114728;28;20595;-82
2022/03/22 15:30:36;;;;;;;6.90;6.30;;;20.20;64.50;;;;;;5114700;28;20246;-82
2022/03/22 15:33:02;;;;;;;7.85;6.45;;;20.20;61.70;;;;;;5114734;28;20202;-81
2022/03/22 15:35:28;;;;;;;7.07;6.57;;;20.20;59.90;;;;;;5113478;28;20178;-84
2022/03/22 15:37:54;;;;;;;8.75;6.60;;;20.20;61.30;;;;;;5114599;28;20166;-82
2022/03/22 15:40:20;;;;;;;6.60;6.05;;;20.20;60.80;;;;;;5113272;28;20173;-84
2022/03/22 15:42:47;;;;;;;7.20;5.95;;;20.20;58.40;;;;;;5113286;28;20194;-83
2022/03/22 15:45:14;;;;;;;8.20;6.20;;;20.20;64.80;;;;;;5113401;28;20208;-85
2022/03/22 15:47:41;;;;;;;10.35;7.28;;;20.10;63.90;;;;;;5114318;28;20158;-83
2022/03/22 15:50:12;;;;;;;6.55;5.95;;;19.90;59.80;;;;;;5114281;28;20619;-83
2022/03/22 15:52:38;;;;;;;8.18;6.93;;;19.90;58.90;;;;;;5114449;28;20234;-83
2022/03/22 15:55:08;;;;;;;7.35;6.57;;;19.90;57.90;;;;;;5114320;28;20660;-81
2022/03/22 15:57:35;;;;;;;8.48;7.15;;;19.90;58.10;;;;;;5114310;28;20186;-77
2022/03/22 16:00:02;;;;;;;8.55;6.90;;;19.80;58.00;;;;;;5114201;28;20658;-78
2022/03/22 16:02:27;;;;;;;7.32;6.10;;;19.80;59.80;;;;;;5112543;28;20281;-80
2022/03/22 16:04:53;;;;;;;7.05;6.35;;;19.80;59.70;;;;;;5113993;28;20216;-75
2022/03/22 16:07:18;;;;;;;10.80;6.85;;;19.60;61.60;;;;;;5114267;28;20616;-76
2022/03/22 16:09:45;;;;;;;10.07;7.35;;;19.60;58.90;;;;;;5114096;28;20190;-79
2022/03/22 16:12:11;;;;;;;7.65;6.82;;;19.50;57.30;;;;;;5114330;28;20690;-78
2022/03/22 16:14:45;;;;;;;7.53;6.55;;;19.40;57.80;;;;;;5114217;28;20226;-86
2022/03/22 16:17:14;;;;;;;8.52;6.82;;;19.40;59.70;;;;;;5114124;28;20162;-79
2022/03/22 16:19:40;;;;;;;8.93;7.22;;;19.40;59.60;;;;;;5113910;28;20163;-80
2022/03/22 16:22:05;;;;;;;7.22;6.63;;;19.40;57.90;;;;;;5114152;28;20205;-83
2022/03/22 16:24:31;;;;;;;7.88;6.85;;;19.40;59.50;;;;;;5113890;28;20170;-80
2022/03/22 16:26:57;;;;;;;7.80;7.00;;;19.40;58.90;;;;;;5114109;28;20159;-82
2022/03/22 16:29:23;;;;;;;13.70;7.65;;;19.30;61.00;;;;;;5113905;28;20197;-82
2022/03/22 16:31:52;;;;;;;8.05;7.22;;;19.30;59.80;;;;;;5113955;28;20163;-82
2022/03/22 16:37:03;;;;;;;11.60;7.82;;;19.20;59.00;;;;;;5114124;28;20196;-82
2022/03/22 16:39:29;;;;;;;7.97;7.28;;;19.10;59.20;;;;;;5113638;28;20688;-84
2022/03/22 16:42:01;;;;;;;9.70;7.10;;;19.00;58.30;;;;;;5113718;28;20197;-82
2022/03/22 16:44:32;;;;;;;9.55;6.82;;;18.90;61.30;;;;;;5112291;28;20178;-85
2022/03/22 16:47:00;;;;;;;7.88;7.22;;;18.80;61.90;;;;;;5113643;28;20151;-84
2022/03/22 16:49:26;;;;;;;8.88;6.93;;;18.70;60.80;;;;;;5113595;28;20159;-84
2022/03/22 16:51:52;;;;;;;10.23;7.80;;;18.70;60.50;;;;;;5113487;28;20177;-84
2022/03/22 16:54:18;;;;;;;7.75;6.88;;;18.70;60.90;;;;;;5113628;28;20170;-84
2022/03/22 16:56:43;;;;;;;11.70;6.65;;;18.60;62.90;;;;;;5113586;28;20178;-83
2022/03/22 16:59:10;;;;;;;12.98;8.10;;;18.60;59.90;;;;;;5116306;28;20211;-83
2022/03/22 17:01:36;;;;;;;8.38;7.57;;;18.50;59.70;;;;;;5117539;28;20187;-85
2022/03/22 17:04:03;;;;;;;8.00;7.20;;;18.40;58.50;;;;;;5117343;28;20185;-87
2022/03/22 17:06:30;;;;;;;10.75;6.95;;;18.30;61.10;;;;;;5116027;28;20184;-86
2022/03/22 17:08:56;;;;;;;8.82;7.50;;;18.10;62.60;;;;;;5117323;28;20512;-84
2022/03/22 17:11:23;;;;;;;11.07;7.88;;;18.10;63.00;;;;;;5117181;28;20271;-85
2022/03/22 17:13:50;;;;;;;9.00;7.90;;;17.80;65.20;;;;;;5117208;28;20602;-86
2022/03/22 17:16:15;;;;;;;9.55;7.78;;;17.60;68.00;;;;;;5117214;28;20171;-86
2022/03/22 17:18:42;;;;;;;12.25;8.10;;;17.50;67.80;;;;;;5117126;28;20211;-86
2022/03/22 17:21:08;;;;;;;11.48;7.60;;;17.30;68.20;;;;;;5117001;28;20186;-85
2022/03/22 17:23:34;;;;;;;9.40;7.65;;;17.10;71.00;;;;;;5116939;28;20182;-78
2022/03/22 17:25:59;;;;;;;8.57;7.15;;;16.90;72.50;;;;;;5116975;28;20627;-81
2022/03/22 17:28:27;;;;;;;11.75;7.47;;;16.70;71.80;;;;;;5117023;28;20223;-81
2022/03/22 17:30:53;;;;;;;9.07;7.00;;;16.50;73.30;;;;;;5116871;28;20229;-81
2022/03/22 17:33:19;;;;;;;9.27;6.38;;;16.30;74.70;;;;;;5117052;28;20174;-81
2022/03/22 17:35:45;;;;;;;8.57;6.28;;;16.10;76.50;;;;;;5116824;28;20231;-80
2022/03/22 17:38:13;;;;;;;7.72;6.78;;;15.90;77.60;;;;;;5116872;28;20144;-80
2022/03/22 17:40:39;;;;;;;13.38;7.43;;;15.70;77.10;;;;;;5115264;28;20616;-80
2022/03/22 17:43:05;;;;;;;11.15;7.10;;;15.50;76.80;;;;;;5116432;28;20229;-80
2022/03/22 17:45:30;;;;;;;8.40;6.72;;;15.20;78.00;;;;;;5116878;28;20206;-80
2022/03/22 17:47:56;;;;;;;10.20;6.85;;;15.00;76.90;;;;;;5116731;28;20163;-80
2022/03/22 17:50:22;;;;;;;6.47;5.78;;;14.90;77.90;;;;;;5115324;28;20651;-80
2022/03/22 17:52:50;;;;;;;8.35;6.65;;;14.70;78.80;;;;;;5116414;28;20195;-80
2022/03/22 17:55:17;;;;;;;7.47;6.68;;;14.50;77.60;;;;;;5116527;28;20167;-80
